Time;durP1;ratioP1;P1;durP2;ratioP2;P2;SDS_P1;SDS_P2;PMS_P1;PMS_P2;Temp;Humidity;BMP_temperature;BMP_pressure;BME280_temperature;BME280_humidity;BME280_pressure;Samples;Min_cycle;Max_cycle;Signal;HPM_P1;HPM_P2
2022/04/21 00:00:42;;;;;;;11.50;8.63;;;;;;;10.84;70.13;101586.41;5005134;28;20645;-55
2022/04/21 00:03:08;;;;;;;11.65;8.63;;;;;;;10.78;69.74;101589.22;5006400;28;20049;-59
2022/04/21 00:05:33;;;;;;;11.70;8.98;;;;;;;10.74;70.32;101587.50;5010057;28;20034;-58
2022/04/21 00:07:59;;;;;;;11.07;8.50;;;;;;;10.65;70.10;101585.13;5009800;28;20123;-58
2022/04/21 00:10:25;;;;;;;13.30;9.43;;;;;;;10.65;70.29;101585.97;5010147;28;20022;-59
2022/04/21 00:12:51;;;;;;;15.57;9.98;;;;;;;10.57;70.58;101585.28;5008779;28;20034;-59
2022/04/21 00:15:17;;;;;;;12.32;9.82;;;;;;;10.49;70.77;101574.88;5010462;28;20395;-59
2022/04/21 00:17:43;;;;;;;11.52;9.20;;;;;;;10.57;70.42;101574.72;5009674;28;20022;-57
2022/04/21 00:20:09;;;;;;;15.65;9.50;;;;;;;10.47;71.13;101576.69;5010525;28;20037;-58
2022/04/21 00:25:19;;;;;;;13.27;9.00;;;;;;;10.44;71.06;101576.72;5010465;28;20099;-59
2022/04/21 00:27:46;;;;;;;14.85;9.00;;;;;;;10.35;71.14;101569.88;5008625;28;20010;-57
2022/04/21 00:30:13;;;;;;;16.38;9.13;;;;;;;10.30;71.28;101572.59;5008842;28;20090;-59
2022/04/21 00:32:39;;;;;;;14.05;9.02;;;;;;;10.29;71.22;101575.31;5009241;28;20069;-58
2022/04/21 00:35:06;;;;;;;16.05;9.68;;;;;;;10.20;71.60;101574.56;5010188;28;20049;-57
2022/04/21 00:37:32;;;;;;;14.23;10.02;;;;;;;10.00;72.06;101577.63;5007942;28;20062;-58
2022/04/21 00:39:57;;;;;;;12.73;9.32;;;;;;;10.00;71.92;101577.63;5009163;28;20077;-58
2022/04/21 00:42:23;;;;;;;12.00;8.45;;;;;;;10.10;71.61;101583.56;5008907;28;20030;-62
2022/04/21 00:44:51;;;;;;;13.32;9.00;;;;;;;9.95;72.26;101585.59;5009211;28;20030;-57
2022/04/21 00:47:18;;;;;;;13.15;9.40;;;;;;;9.89;72.19;101583.09;5009814;28;20034;-58
2022/04/21 00:49:44;;;;;;;11.85;8.65;;;;;;;9.97;72.02;101575.88;5007028;28;20034;-60
2022/04/21 00:52:10;;;;;;;14.68;9.10;;;;;;;9.98;71.71;101576.78;5009379;28;20018;-56
2022/04/21 00:54:35;;;;;;;13.13;8.52;;;;;;;9.97;71.74;101578.53;4990746;28;20032;-56
2022/04/21 00:57:01;;;;;;;14.82;9.25;;;;;;;9.95;71.46;101582.09;5009899;28;20029;-58
2022/04/21 00:59:27;;;;;;;14.88;9.15;;;;;;;9.94;71.40;101569.84;5009042;28;20030;-58
2022/04/21 01:04:37;;;;;;;12.93;9.15;;;;;;;9.82;71.45;101569.16;5008511;28;20092;-58
2022/04/21 01:07:02;;;;;;;14.10;9.23;;;;;;;10.04;70.84;101571.38;5007280;28;20029;-55
2022/04/21 01:09:28;;;;;;;11.60;9.25;;;;;;;9.97;71.11;101572.41;4988884;28;20022;-58
2022/04/21 01:11:53;;;;;;;11.07;8.35;;;;;;;9.91;71.44;101570.78;4990851;28;20030;-58
2022/04/21 01:14:19;;;;;;;12.05;9.18;;;;;;;9.93;71.06;101574.22;4990942;28;20023;-57
2022/04/21 01:16:46;;;;;;;14.60;8.30;;;;;;;9.89;71.16;101574.31;4989524;28;20022;-58
2022/04/21 01:19:11;;;;;;;11.93;8.48;;;;;;;9.89;71.35;101574.31;4989372;28;20495;-56
2022/04/21 01:21:36;;;;;;;11.50;8.60;;;;;;;9.68;71.72;101572.06;4996184;28;20026;-58
2022/04/21 01:24:04;;;;;;;15.70;8.73;;;;;;;9.80;71.43;101570.09;5009222;28;20026;-56
2022/04/21 01:26:36;;;;;;;12.38;9.15;;;;;;;9.74;71.78;101573.72;5008404;28;20033;-57
2022/04/21 01:29:03;;;;;;;11.25;8.45;;;;;;;9.57;71.60;101567.00;5009368;28;20050;-58
2022/04/21 01:31:30;;;;;;;14.70;8.32;;;;;;;9.77;70.85;101568.41;5007448;28;20025;-56
2022/04/21 01:33:55;;;;;;;12.55;8.43;;;;;;;9.71;70.80;101572.00;5008091;28;20034;-57
2022/04/21 01:36:21;;;;;;;14.75;9.23;;;;;;;9.69;71.13;101565.91;5007617;28;20033;-62
2022/04/21 01:41:30;;;;;;;12.48;8.55;;;;;;;9.67;71.60;101567.72;5007967;28;20405;-56
2022/04/21 01:43:55;;;;;;;13.52;8.48;;;;;;;9.52;72.04;101557.44;5009206;28;20034;-58
2022/04/21 01:46:20;;;;;;;11.13;7.93;;;;;;;9.59;71.83;101557.31;5007383;28;20033;-56
2022/04/21 01:48:46;;;;;;;13.40;8.60;;;;;;;9.50;71.98;101560.09;5008821;28;20026;-57
2022/04/21 01:51:11;;;;;;;12.43;8.82;;;;;;;9.50;71.72;101559.22;5008370;28;20061;-59
2022/04/21 01:53:36;;;;;;;13.48;9.02;;;;;;;9.54;71.65;101548.63;5008341;28;20030;-57
2022/04/21 01:56:02;;;;;;;13.73;9.65;;;;;;;9.53;71.56;101554.78;5008482;28;20560;-57
2022/04/21 01:58:27;;;;;;;12.68;8.27;;;;;;;9.50;71.71;101554.84;5007754;28;20607;-57
2022/04/21 02:00:53;;;;;;;13.95;9.23;;;;;;;9.38;71.84;101553.28;5007924;28;20066;-55
2022/04/21 02:03:18;;;;;;;14.68;8.48;;;;;;;9.48;71.63;101554.88;5007909;28;20069;-57
2022/04/21 02:05:44;;;;;;;15.43;8.63;;;;;;;9.50;71.64;101551.34;5008275;28;20034;-58
2022/04/21 02:08:09;;;;;;;14.02;9.20;;;;;;;9.34;72.03;101554.25;5007555;28;20819;-57
2022/04/21 02:10:35;;;;;;;10.63;8.27;;;;;;;9.38;71.76;101549.78;5008295;28;20529;-61
2022/04/21 02:13:00;;;;;;;13.30;9.07;;;;;;;9.36;71.81;101547.19;5006069;28;20171;-58
2022/04/21 02:15:27;;;;;;;13.35;8.85;;;;;;;9.37;71.86;101545.44;5007841;28;20100;-57
2022/04/21 02:17:52;;;;;;;13.10;8.55;;;;;;;9.33;71.93;101553.38;5007183;28;20022;-55
2022/04/21 02:20:18;;;;;;;17.52;9.05;;;;;;;9.34;71.92;101549.84;5007910;28;20041;-57
2022/04/21 02:22:46;;;;;;;15.05;8.85;;;;;;;9.30;72.09;101545.53;5007331;28;20045;-57
2022/04/21 02:25:16;;;;;;;9.90;7.97;;;;;;;9.32;71.98;101538.50;5007456;28;20042;-58
2022/04/21 02:27:47;;;;;;;10.95;8.23;;;;;;;9.31;72.27;101536.78;5006992;28;20029;-56
2022/04/21 02:30:14;;;;;;;18.60;8.75;;;;;;;9.32;72.47;101529.72;5006560;28;20052;-57
2022/04/21 02:32:40;;;;;;;13.25;8.73;;;;;;;9.13;73.24;101527.44;5007544;28;20026;-57
2022/04/21 02:35:06;;;;;;;14.32;8.60;;;;;;;9.20;73.11;101534.31;5006184;28;20030;-54
2022/04/21 02:37:36;;;;;;;13.40;8.57;;;;;;;9.15;73.30;101528.25;5006684;28;20022;-54
2022/04/21 02:40:02;;;;;;;13.63;9.10;;;;;;;9.10;73.46;101530.09;5006946;28;20026;-56
2022/04/21 02:42:27;;;;;;;10.60;7.90;;;;;;;9.08;73.56;101524.88;5005928;28;20064;-58
2022/04/21 02:44:52;;;;;;;14.50;9.43;;;;;;;9.08;73.46;101527.50;5006595;28;20025;-57
2022/04/21 02:47:18;;;;;;;12.18;9.18;;;;;;;8.99;73.56;101527.63;5006020;28;20026;-57
2022/04/21 02:49:47;;;;;;;12.75;8.90;;;;;;;8.80;74.13;101530.56;5007266;28;20025;-59
2022/04/21 02:52:13;;;;;;;13.57;9.65;;;;;;;8.85;73.94;101531.34;5005669;28;20030;-56
2022/04/21 02:57:23;;;;;;;14.85;9.07;;;;;;;8.91;73.83;101525.13;5004995;28;20468;-57
2022/04/21 02:59:50;;;;;;;11.25;8.30;;;;;;;8.85;73.96;101525.22;5007004;28;20049;-55
2022/04/21 03:02:16;;;;;;;14.05;9.85;;;;;;;8.84;73.99;101529.63;5006317;28;20033;-57
2022/04/21 03:04:41;;;;;;;16.92;9.10;;;;;;;8.82;73.71;101528.78;5006384;28;20057;-57
2022/04/21 03:07:07;;;;;;;16.15;8.70;;;;;;;8.88;73.44;101526.97;5005120;28;20049;-56
2022/04/21 03:09:32;;;;;;;13.43;8.55;;;;;;;8.79;73.41;101526.19;5006866;28;20034;-58
2022/04/21 03:12:04;;;;;;;13.07;8.88;;;;;;;8.82;73.46;101528.78;5007196;28;20018;-60
2022/04/21 03:14:29;;;;;;;16.00;9.07;;;;;;;8.77;73.60;101529.75;5005334;28;20037;-57
2022/04/21 03:16:55;;;;;;;11.98;8.43;;;;;;;8.91;72.86;101529.53;5006771;28;20534;-56
2022/04/21 03:19:21;;;;;;;15.50;9.02;;;;;;;8.83;73.11;101527.91;5005318;28;20053;-58
2022/04/21 03:24:30;;;;;;;12.35;8.07;;;;;;;8.75;73.04;101521.88;5005736;28;20096;-55
2022/04/21 03:26:56;;;;;;;13.02;7.95;;;;;;;8.78;72.94;101521.84;5006495;28;20026;-57
2022/04/21 03:29:21;;;;;;;12.82;8.65;;;;;;;8.82;72.74;101526.16;5005336;28;20061;-56
2022/04/21 03:31:48;;;;;;;12.50;7.97;;;;;;;8.82;72.35;101526.16;5007635;28;20052;-55
2022/04/21 03:34:18;;;;;;;10.48;8.18;;;;;;;8.87;71.94;101525.19;5004620;28;20032;-56
2022/04/21 03:36:47;;;;;;;9.88;8.10;;;;;;;8.87;72.09;101522.56;5005697;28;20045;-57
2022/04/21 03:39:12;;;;;;;15.80;8.57;;;;;;;8.78;72.38;101524.47;5004467;28;20113;-56
2022/04/21 03:41:38;;;;;;;17.70;8.32;;;;;;;8.69;72.68;101528.09;5006568;28;20118;-57
2022/04/21 03:44:04;;;;;;;11.60;8.73;;;;;;;8.66;73.01;101525.53;5006121;28;20030;-61
2022/04/21 03:46:30;;;;;;;12.20;8.48;;;;;;;8.62;72.74;101526.47;5004944;28;20045;-58
2022/04/21 03:48:55;;;;;;;11.98;8.60;;;;;;;8.68;73.19;101530.75;5006232;28;20389;-60
2022/04/21 03:51:20;;;;;;;13.63;9.20;;;;;;;8.60;73.12;101525.59;5006015;28;20030;-60
2022/04/21 03:53:46;;;;;;;10.98;7.75;;;;;;;8.69;73.03;101524.59;5006518;28;20698;-60
2022/04/21 03:56:11;;;;;;;17.27;8.43;;;;;;;8.72;72.66;101525.44;5005260;28;20034;-58
2022/04/21 03:58:36;;;;;;;15.00;8.40;;;;;;;8.69;72.60;101520.22;5005824;28;20025;-57
2022/04/21 04:01:02;;;;;;;13.15;9.07;;;;;;;8.67;72.84;101521.16;5002952;28;20469;-60
2022/04/21 04:03:27;;;;;;;12.90;8.45;;;;;;;8.64;73.13;101529.06;5005126;28;20086;-59
2022/04/21 04:05:53;;;;;;;15.15;7.82;;;;;;;8.61;72.96;101529.97;5003822;28;20041;-58
2022/04/21 04:11:02;;;;;;;13.65;8.75;;;;;;;8.54;73.12;101526.56;4999439;28;20064;-56
2022/04/21 04:13:27;;;;;;;11.82;8.32;;;;;;;8.52;73.54;101525.69;5003022;28;21130;-58
2022/04/21 04:15:54;;;;;;;13.55;8.73;;;;;;;8.54;73.17;101518.69;5005483;28;20105;-65
2022/04/21 04:18:21;;;;;;;16.30;8.98;;;;;;;8.65;72.74;101522.91;5007669;28;20077;-59
2022/04/21 04:20:46;;;;;;;12.95;8.80;;;;;;;8.51;73.57;101516.06;5007595;28;20022;-61
2022/04/21 04:23:19;;;;;;;13.15;8.55;;;;;;;8.59;73.44;101523.88;5006711;28;20049;-55
2022/04/21 04:25:44;;;;;;;15.65;9.40;;;;;;;8.42;74.16;101521.44;5006800;28;20036;-59
2022/04/21 04:28:09;;;;;;;14.13;9.20;;;;;;;8.53;73.66;101523.94;5007323;28;20925;-57
2022/04/21 04:30:36;;;;;;;14.30;8.50;;;;;;;8.45;73.96;101524.91;5005798;28;20057;-57
2022/04/21 04:33:02;;;;;;;15.63;8.73;;;;;;;8.36;74.33;101524.19;5007108;28;20026;-52
2022/04/21 04:35:27;;;;;;;14.73;8.65;;;;;;;8.40;73.90;101520.63;5006840;28;20049;-57
2022/04/21 04:37:53;;;;;;;12.55;9.23;;;;;;;8.45;73.71;101524.03;5006424;28;20026;-56
2022/04/21 04:40:19;;;;;;;12.57;8.98;;;;;;;8.38;74.10;101533.75;5007354;28;20112;-61
2022/04/21 04:42:44;;;;;;;12.05;8.70;;;;;;;8.47;73.70;101540.66;5006009;28;20503;-58
2022/04/21 04:47:53;;;;;;;12.05;8.43;;;;;;;8.54;73.22;101534.44;5005394;28;20064;-53
2022/04/21 04:50:19;;;;;;;12.30;8.07;;;;;;;8.56;72.98;101540.56;5008150;28;20025;-56
2022/04/21 04:52:44;;;;;;;10.15;7.60;;;;;;;8.59;72.67;101534.38;5008461;28;20036;-62
2022/04/21 04:55:11;;;;;;;12.68;7.93;;;;;;;8.68;72.61;101536.88;5007799;28;20239;-54
2022/04/21 04:57:38;;;;;;;10.48;8.15;;;;;;;8.72;72.46;101535.94;5009340;28;20080;-60
2022/04/21 05:00:04;;;;;;;9.13;7.30;;;;;;;8.77;72.04;101538.50;5008188;28;20022;-56
2022/04/21 05:02:29;;;;;;;11.77;7.35;;;;;;;8.80;72.15;101541.09;5008742;28;20030;-59
2022/04/21 05:04:55;;;;;;;11.38;8.27;;;;;;;8.79;72.29;101541.97;5009289;28;20109;-58
2022/04/21 05:07:20;;;;;;;12.02;7.57;;;;;;;8.79;72.21;101536.69;5007863;28;20057;-56
2022/04/21 05:09:46;;;;;;;18.27;7.28;;;;;;;8.81;72.02;101540.19;5010370;28;20590;-57
2022/04/21 05:12:11;;;;;;;11.55;8.13;;;;;;;8.78;72.14;101539.34;5010077;28;20022;-57
2022/04/21 05:14:37;;;;;;;10.85;7.60;;;;;;;8.78;72.48;101540.22;5009022;28;20029;-57
2022/04/21 05:17:02;;;;;;;15.98;7.97;;;;;;;8.94;71.68;101547.91;5008522;28;20444;-58
2022/04/21 05:19:28;;;;;;;13.85;8.00;;;;;;;8.91;71.83;101540.06;5008109;28;20084;-62
2022/04/21 05:21:53;;;;;;;14.23;8.05;;;;;;;8.88;71.60;101546.19;5023715;28;20030;-57
2022/04/21 05:24:19;;;;;;;16.17;7.28;;;;;;;8.96;71.64;101543.47;5009498;28;20030;-56
2022/04/21 05:26:45;;;;;;;14.10;7.57;;;;;;;8.99;71.48;101546.03;5009159;28;20029;-57
2022/04/21 05:31:58;;;;;;;8.57;7.03;;;;;;;9.36;70.27;101536.66;5008885;28;20052;-56
2022/04/21 05:34:24;;;;;;;9.82;7.07;;;;;;;9.47;70.34;101547.00;5008148;28;20473;-55
2022/04/21 05:36:49;;;;;;;9.50;6.90;;;;;;;9.59;69.79;101552.06;5008141;28;20092;-58
2022/04/21 05:39:15;;;;;;;10.85;7.22;;;;;;;9.67;69.44;101549.28;5006543;28;20030;-57
2022/04/21 05:41:41;;;;;;;17.85;8.15;;;;;;;9.54;70.01;101546.00;5008248;28;20045;-58
2022/04/21 05:44:07;;;;;;;10.70;7.43;;;;;;;9.65;69.71;101550.19;5004506;28;20088;-58
2022/04/21 05:46:32;;;;;;;10.38;6.93;;;;;;;9.80;68.98;101552.53;5009495;28;20037;-60
2022/04/21 05:48:58;;;;;;;9.80;7.28;;;;;;;9.74;68.93;101550.03;5007472;28;20022;-57
2022/04/21 05:51:24;;;;;;;9.07;6.80;;;;;;;9.80;68.94;101557.81;5008916;28;20037;-54
2022/04/21 05:53:50;;;;;;;10.80;7.47;;;;;;;9.82;69.17;101552.50;5005336;28;20018;-52
2022/04/21 05:56:16;;;;;;;8.90;6.28;;;;;;;10.00;68.76;101553.94;5009146;28;20084;-54
2022/04/21 05:58:41;;;;;;;11.15;6.75;;;;;;;9.94;68.88;101554.03;5008467;28;20456;-53
2022/04/21 06:01:08;;;;;;;12.80;7.10;;;;;;;9.91;68.79;101549.72;5007053;28;20010;-56
2022/04/21 06:03:37;;;;;;;9.07;6.55;;;;;;;10.06;68.39;101555.56;5007857;28;20440;-57
2022/04/21 06:06:04;;;;;;;10.57;7.28;;;;;;;10.15;68.07;101555.38;5008762;28;20496;-58
2022/04/21 06:08:29;;;;;;;10.85;6.30;;;;;;;10.39;67.33;101549.63;5008340;28;20500;-56
2022/04/21 06:10:56;;;;;;;8.88;6.45;;;;;;;10.50;66.89;101555.53;5008334;28;20018;-56
2022/04/21 06:13:22;;;;;;;9.68;6.93;;;;;;;10.28;67.13;101550.72;5002250;28;20436;-56
2022/04/21 06:15:47;;;;;;;12.30;6.40;;;;;;;10.20;67.56;101555.25;4988065;28;20054;-57
2022/04/21 06:18:13;;;;;;;7.32;5.32;;;;;;;10.60;66.17;101549.16;4988548;28;20018;-56
2022/04/21 06:20:38;;;;;;;8.52;6.20;;;;;;;10.71;66.03;101553.31;4988299;28;20030;-57
2022/04/21 06:23:04;;;;;;;9.88;6.30;;;;;;;10.79;66.14;101551.38;4998231;28;20030;-55
2022/04/21 06:25:29;;;;;;;9.60;6.57;;;;;;;10.81;66.07;101552.19;5008350;28;20104;-55
2022/04/21 06:27:54;;;;;;;8.02;6.63;;;;;;;11.01;65.66;101542.94;5007035;28;20026;-57
2022/04/21 06:30:20;;;;;;;8.07;5.82;;;;;;;10.92;66.26;101543.16;5008195;28;20537;-55
2022/04/21 06:32:46;;;;;;;10.25;6.60;;;;;;;10.68;66.69;101537.56;5005297;28;20073;-58
2022/04/21 06:35:12;;;;;;;7.20;6.18;;;;;;;10.44;67.36;101542.47;5007846;28;20595;-56
2022/04/21 06:37:37;;;;;;;8.60;6.15;;;;;;;10.66;67.05;101537.63;5006605;28;20249;-56
2022/04/21 06:40:04;;;;;;;11.25;5.95;;;;;;;10.65;66.66;101537.66;5007201;28;20127;-57
2022/04/21 06:42:29;;;;;;;13.05;5.55;;;;;;;10.54;66.96;101538.75;5006777;28;20026;-59
2022/04/21 06:50:22;;;;;;;10.00;6.18;;;;;;;11.13;65.53;101531.22;4988153;28;20049;-58
2022/04/21 06:52:48;;;;;;;8.52;5.63;;;;;;;11.10;65.26;101526.91;4987538;28;20030;-58
2022/04/21 06:55:13;;;;;;;9.27;5.93;;;;;;;11.14;65.60;101532.97;5002940;28;20037;-56
2022/04/21 06:57:38;;;;;;;6.55;5.68;;;;;;;11.23;65.16;101531.88;5006739;28;20516;-56
2022/04/21 07:00:05;;;;;;;8.98;5.75;;;;;;;11.06;65.56;101535.81;5004997;28;20014;-56
2022/04/21 07:02:37;;;;;;;8.48;5.63;;;;;;;11.23;65.55;101539.78;5006982;28;20071;-57
2022/04/21 07:05:03;;;;;;;10.35;6.53;;;;;;;11.31;65.64;101536.94;5005709;28;20018;-62
2022/04/21 07:07:29;;;;;;;9.60;6.20;;;;;;;11.07;66.26;101542.81;5006861;28;20055;-58
2022/04/21 07:09:56;;;;;;;9.80;6.47;;;;;;;11.21;65.90;101531.03;5006092;28;20065;-59
2022/04/21 07:12:29;;;;;;;7.70;5.70;;;;;;;11.33;65.46;101533.38;5005182;28;20037;-58
2022/04/21 07:14:56;;;;;;;8.60;4.97;;;;;;;11.48;65.28;101528.59;5004489;28;20030;-56
2022/04/21 07:17:21;;;;;;;7.75;5.53;;;;;;;11.63;64.59;101530.81;5005473;28;20030;-59
2022/04/21 07:19:48;;;;;;;8.95;6.35;;;;;;;11.83;64.10;101531.19;5006206;28;20380;-58
2022/04/21 07:22:13;;;;;;;9.23;6.25;;;;;;;11.90;64.03;101531.88;5005557;28;20030;-58
2022/04/21 07:24:38;;;;;;;7.15;5.60;;;;;;;12.08;63.20;101522.56;5004379;28;20033;-57
2022/04/21 07:27:04;;;;;;;11.07;5.55;;;;;;;12.17;62.84;101524.97;5006789;28;20289;-60
2022/04/21 07:29:30;;;;;;;6.63;5.20;;;;;;;12.18;62.76;101525.81;5004025;28;20473;-58
2022/04/21 07:31:56;;;;;;;11.40;5.30;;;;;;;12.20;61.76;101529.28;5003335;28;20026;-58
2022/04/21 07:34:21;;;;;;;8.77;4.70;;;;;;;12.24;61.93;101525.63;5000242;28;20412;-59
2022/04/21 07:36:47;;;;;;;6.40;4.75;;;;;;;12.30;60.84;101532.50;5006028;28;20034;-59
2022/04/21 07:39:12;;;;;;;13.45;5.53;;;;;;;12.25;61.65;101532.63;5005125;28;20026;-59
2022/04/21 07:41:37;;;;;;;8.77;4.78;;;;;;;12.44;60.30;101525.03;5006209;28;20036;-49
2022/04/21 07:44:03;;;;;;;6.38;4.60;;;;;;;12.62;59.75;101531.50;5005150;28;20026;-55
2022/04/21 07:46:28;;;;;;;6.63;4.63;;;;;;;12.77;59.93;101526.66;5004702;28;20038;-61
2022/04/21 07:51:38;;;;;;;8.38;4.90;;;;;;;12.66;60.91;101527.00;5003314;28;20044;-56
2022/04/21 07:54:03;;;;;;;5.30;4.80;;;;;;;12.80;60.50;101525.69;5003401;28;20112;-57
2022/04/21 07:56:28;;;;;;;6.97;4.53;;;;;;;12.70;59.90;101528.63;5005386;28;20022;-56
2022/04/21 07:58:54;;;;;;;7.78;4.75;;;;;;;12.95;59.51;101530.50;5005986;28;20118;-57
2022/04/21 08:01:19;;;;;;;4.80;4.20;;;;;;;13.01;59.00;101524.13;5004764;28;20044;-59
2022/04/21 08:03:44;;;;;;;4.90;3.90;;;;;;;13.18;58.99;101528.84;5006087;28;20292;-59
2022/04/21 08:06:12;;;;;;;9.35;4.85;;;;;;;13.04;59.76;101534.63;5003095;28;20034;-60
2022/04/21 08:08:40;;;;;;;5.13;4.03;;;;;;;13.33;58.92;101532.75;5005893;28;20026;-56
2022/04/21 08:11:05;;;;;;;5.75;4.40;;;;;;;13.37;59.07;101538.81;5003909;28;20026;-55
2022/04/21 08:13:31;;;;;;;7.72;4.40;;;;;;;13.34;58.08;101533.63;5003903;28;20420;-53
2022/04/21 08:15:56;;;;;;;5.75;4.38;;;;;;;13.45;58.50;101538.56;5003673;28;20477;-57
2022/04/21 08:18:21;;;;;;;5.65;4.40;;;;;;;13.38;57.74;101532.59;5005046;28;20033;-56
2022/04/21 08:20:48;;;;;;;5.70;3.90;;;;;;;13.53;57.78;101541.81;5003881;28;20021;-55
2022/04/21 08:23:13;;;;;;;5.78;4.18;;;;;;;13.66;57.59;101542.22;4995829;28;20138;-58
2022/04/21 08:33:51;;;;;;;5.68;3.30;;;;;;;14.28;55.98;101544.41;5008599;28;20040;-54
2022/04/21 08:36:17;;;;;;;6.40;4.50;;;;;;;14.27;56.02;101542.69;5005031;28;20022;-55
2022/04/21 08:38:43;;;;;;;7.32;3.83;;;;;;;14.05;55.38;101540.84;4999067;28;20129;-55
2022/04/21 08:41:14;;;;;;;7.13;3.80;;;;;;;14.39;55.04;101542.19;4999590;28;20072;-56
2022/04/21 08:43:40;;;;;;;5.07;3.75;;;;;;;14.30;54.96;101539.88;5009037;28;20447;-55
2022/04/21 08:46:08;;;;;;;3.78;3.33;;;;;;;14.68;54.46;101541.09;5007573;28;20352;-52
2022/04/21 08:48:35;;;;;;;3.75;3.40;;;;;;;14.37;55.33;101543.19;5009341;28;20025;-58
2022/04/21 08:51:00;;;;;;;8.98;3.47;;;;;;;14.62;54.92;101536.91;5007637;28;20061;-59
2022/04/21 08:53:26;;;;;;;6.03;3.30;;;;;;;14.80;53.39;101537.13;4998214;28;20023;-55
2022/04/21 08:55:52;;;;;;;7.97;3.53;;;;;;;14.92;52.49;101539.28;4997569;28;20101;-60
2022/04/21 08:58:17;;;;;;;4.05;3.33;;;;;;;14.94;52.98;101532.13;5007093;28;20021;-57
2022/04/21 09:00:44;;;;;;;4.35;3.38;;;;;;;14.93;53.28;101540.16;5008020;28;20026;-60
2022/04/21 09:03:11;;;;;;;4.15;3.33;;;;;;;14.96;53.51;101534.72;5005473;28;20038;-59
2022/04/21 09:05:36;;;;;;;4.30;3.67;;;;;;;15.18;53.52;101532.03;5008098;28;20026;-58
2022/04/21 09:08:02;;;;;;;6.18;3.90;;;;;;;14.85;53.54;101525.41;5007556;28;20424;-57
2022/04/21 09:10:35;;;;;;;7.32;4.53;;;;;;;14.53;53.93;101527.53;5007696;28;20041;-54
2022/04/21 09:13:02;;;;;;;6.32;4.10;;;;;;;14.60;54.74;101531.66;5007322;28;20438;-57
2022/04/21 09:15:30;;;;;;;6.22;4.30;;;;;;;15.10;53.30;101532.34;5008045;28;20028;-57
2022/04/21 09:18:00;;;;;;;4.80;4.03;;;;;;;15.11;53.68;101525.25;5008815;28;20104;-57
2022/04/21 09:20:33;;;;;;;5.65;3.97;;;;;;;15.16;53.76;101521.47;5008677;28;20034;-57
2022/04/21 09:23:00;;;;;;;3.85;3.10;;;;;;;15.53;53.07;101526.97;5009072;28;20036;-56
2022/04/21 09:25:50;;;;;;;6.40;3.50;;;;;;;15.62;51.28;101516.91;5008247;28;20025;-56
2022/04/21 09:28:22;;;;;;;4.40;3.70;;;;;;;15.47;51.88;101521.09;5008469;28;20049;-56
2022/04/21 09:30:51;;;;;;;4.55;3.90;;;;;;;15.38;52.68;101525.00;5008945;28;20041;-55
2022/04/21 09:33:32;;;;;;;5.80;4.00;;;;;;;15.50;52.47;101524.47;5007823;28;20029;-57
2022/04/21 09:35:58;;;;;;;6.57;3.83;;;;;;;15.72;51.51;101525.31;5007544;28;20052;-57
2022/04/21 09:38:24;;;;;;;5.63;3.50;;;;;;;15.98;51.61;101520.66;5007901;28;20499;-55
2022/04/21 09:40:50;;;;;;;6.15;3.65;;;;;;;15.69;52.13;101525.44;5002999;28;20101;-56
2022/04/21 09:43:28;;;;;;;7.55;3.75;;;;;;;15.71;51.17;101520.94;5008066;28;20024;-52
2022/04/21 09:46:10;;;;;;;4.25;3.85;;;;;;;15.62;51.11;101522.22;5008417;28;20052;-54
2022/04/21 09:48:36;;;;;;;4.10;3.47;;;;;;;15.85;51.30;101514.97;5008320;28;20022;-55
2022/04/21 09:51:12;;;;;;;6.57;4.20;;;;;;;15.70;50.66;101511.22;5023149;28;20044;-57
2022/04/21 09:53:56;;;;;;;5.03;3.92;;;;;;;15.92;51.47;101505.78;5008289;28;20034;-54
2022/04/21 09:56:39;;;;;;;6.93;3.97;;;;;;;16.04;51.04;101507.03;5007723;28;20381;-56
2022/04/21 09:59:10;;;;;;;6.40;3.58;;;;;;;15.90;49.73;101505.84;5007152;28;20034;-56
2022/04/21 10:01:41;;;;;;;6.22;3.72;;;;;;;15.74;48.82;101502.19;5004279;28;20037;-56
2022/04/21 10:04:08;;;;;;;5.80;3.60;;;;;;;15.65;48.39;101503.44;5006791;28;20077;-54
2022/04/21 10:06:36;;;;;;;5.10;3.75;;;;;;;15.88;49.25;101494.44;5006455;28;20079;-56
2022/04/21 10:09:01;;;;;;;7.53;3.20;;;;;;;16.22;46.67;101501.81;5006963;28;20017;-54
2022/04/21 10:11:28;;;;;;;4.28;3.00;;;;;;;16.19;47.40;101488.69;5003579;28;20495;-58
2022/04/21 10:13:54;;;;;;;7.88;3.65;;;;;;;15.85;47.21;101491.06;5005660;28;20397;-53
2022/04/21 10:16:24;;;;;;;5.82;2.90;;;;;;;15.87;46.99;101487.38;4997560;28;20477;-58
2022/04/21 10:18:52;;;;;;;3.78;2.30;;;;;;;15.94;44.13;101487.97;4995319;28;20026;-55
2022/04/21 10:21:42;;;;;;;3.22;2.40;;;;;;;15.73;44.49;101481.84;4998493;28;20101;-55
2022/04/21 10:24:09;;;;;;;3.97;2.00;;;;;;;16.01;42.86;101491.25;5017246;28;20049;-57
2022/04/21 10:26:42;;;;;;;3.28;1.92;;;;;;;16.39;42.38;101483.25;5005970;28;20038;-58
2022/04/21 10:29:13;;;;;;;7.68;2.10;;;;;;;16.71;40.32;101481.75;5005851;28;20030;-60
2022/04/21 10:32:11;;;;;;;4.75;2.50;;;;;;;16.44;40.40;101476.84;5005829;28;20237;-54
2022/04/21 10:34:42;;;;;;;4.53;2.35;;;;;;;16.77;40.55;101468.16;4976199;28;20390;-54
2022/04/21 10:37:12;;;;;;;2.92;2.40;;;;;;;16.82;41.63;101463.44;5005656;28;20029;-57
2022/04/21 10:39:39;;;;;;;3.08;2.60;;;;;;;16.82;41.67;101471.41;5003310;28;20475;-55
2022/04/21 10:42:17;;;;;;;4.93;2.30;;;;;;;17.08;40.69;101460.41;5006706;28;20064;-54
2022/04/21 10:44:44;;;;;;;5.40;2.38;;;;;;;16.89;41.43;101462.19;5003313;28;20026;-53
2022/04/21 10:47:38;;;;;;;4.38;2.60;;;;;;;16.86;41.60;101459.66;5005842;28;20477;-58
2022/04/21 10:50:20;;;;;;;3.03;2.40;;;;;;;16.47;41.59;101453.63;5002934;28;20088;-58
2022/04/21 10:58:33;;;;;;;3.97;1.80;;;;;;;16.85;40.41;101447.31;5003673;28;20068;-60
2022/04/21 11:01:09;;;;;;;3.53;1.48;;;;;;;17.39;39.91;101446.34;5005462;28;20060;-57
2022/04/21 11:03:34;;;;;;;2.28;1.42;;;;;;;17.69;36.01;101434.13;5006439;28;20459;-57
2022/04/21 11:06:21;;;;;;;4.45;1.58;;;;;;;17.39;35.17;101437.50;5007078;28;20028;-57
2022/04/21 11:08:47;;;;;;;3.20;1.40;;;;;;;17.50;36.90;101440.47;5005726;28;20034;-55
2022/04/21 11:11:13;;;;;;;2.05;1.45;;;;;;;17.87;36.11;101434.03;5021662;28;20029;-55
2022/04/21 11:14:00;;;;;;;3.80;1.30;;;;;;;18.23;35.79;101429.41;5004301;28;20049;-55
2022/04/21 11:16:48;;;;;;;2.97;1.23;;;;;;;18.13;35.74;101424.63;4998509;28;20038;-54
2022/04/21 11:19:29;;;;;;;5.60;1.70;;;;;;;18.25;36.44;101427.53;5006600;28;20030;-53
2022/04/21 11:21:56;;;;;;;2.58;1.48;;;;;;;18.81;35.21;101418.94;5006280;28;20129;-55
2022/04/21 11:24:22;;;;;;;5.93;1.38;;;;;;;18.62;34.38;101419.19;5006179;28;20149;-55
2022/04/21 11:26:58;;;;;;;1.83;1.63;;;;;;;18.75;33.03;101417.50;5007005;28;20080;-55
2022/04/21 11:29:23;;;;;;;4.00;1.50;;;;;;;18.89;35.91;101419.38;5005428;28;20018;-49
2022/04/21 11:31:55;;;;;;;1.40;1.30;;;;;;;18.81;36.01;101414.47;5006640;28;20073;-52
2022/04/21 11:34:22;;;;;;;4.68;1.40;;;;;;;18.46;34.01;101405.91;5006764;28;20021;-51
2022/04/21 11:36:47;;;;;;;2.15;1.30;;;;;;;18.79;34.09;101410.19;5007028;28;20075;-54
2022/04/21 11:39:13;;;;;;;3.38;1.45;;;;;;;18.36;34.49;101406.44;5006480;28;20108;-60
2022/04/21 11:41:46;;;;;;;6.30;2.00;;;;;;;18.64;33.66;101407.50;5006444;28;20045;-59
2022/04/21 11:44:11;;;;;;;9.57;1.60;;;;;;;18.88;33.19;101408.78;5005115;28;20538;-60
2022/04/21 11:46:40;;;;;;;6.40;1.95;;;;;;;18.48;34.56;101407.53;5006648;28;20022;-60
2022/04/21 11:49:08;;;;;;;6.72;1.80;;;;;;;18.67;33.53;101393.94;5006263;28;20034;-52
2022/04/21 11:51:33;;;;;;;2.10;1.70;;;;;;;18.93;34.76;101399.53;5005415;28;20017;-55
2022/04/21 11:54:09;;;;;;;3.88;1.50;;;;;;;19.00;33.24;101391.16;5004974;28;20551;-56
2022/04/21 11:56:35;;;;;;;2.22;1.70;;;;;;;18.40;33.30;101391.13;5004701;28;20049;-59
2022/04/21 11:59:08;;;;;;;6.60;1.83;;;;;;;18.50;34.01;101399.44;5004090;28;20124;-54
2022/04/21 12:07:04;;;;;;;5.15;2.05;;;;;;;18.49;33.86;101393.25;4997379;28;20077;-59
2022/04/21 12:09:35;;;;;;;2.45;1.50;;;;;;;18.97;31.82;101394.00;4994568;28;20026;-57
2022/04/21 12:12:02;;;;;;;3.83;1.70;;;;;;;19.16;33.84;101383.09;5005083;28;20022;-55
2022/04/21 12:14:28;;;;;;;2.80;1.73;;;;;;;19.59;31.81;101390.22;5003193;28;20030;-57